createdAt,value
2019-03-22T00:00:11.424Z,6.03
2019-03-22T00:02:38.188Z,6.33
2019-03-22T00:05:04.707Z,5.87
2019-03-22T00:07:31.307Z,5.70
2019-03-22T00:09:58.887Z,6.70
2019-03-22T00:12:25.356Z,6.40
2019-03-22T00:14:51.883Z,5.78
2019-03-22T00:17:18.503Z,5.65
2019-03-22T00:19:45.103Z,6.55
2019-03-22T00:22:11.862Z,6.37
2019-03-22T00:24:38.423Z,5.67
2019-03-22T00:27:15.582Z,6.03
2019-03-22T00:29:33.483Z,5.80
2019-03-22T00:32:00.147Z,4.92
2019-03-22T00:34:26.808Z,6.75
2019-03-22T00:36:53.567Z,5.45
2019-03-22T00:39:20.227Z,5.45
2019-03-22T00:41:46.787Z,4.70
2019-03-22T00:44:13.347Z,6.20
2019-03-22T00:46:39.948Z,5.65
2019-03-22T00:49:06.560Z,4.12
2019-03-22T00:51:33.316Z,3.83
2019-03-22T00:53:59.875Z,4.95
2019-03-22T00:56:26.435Z,4.90
2019-03-22T00:58:52.995Z,5.05
2019-03-22T01:01:19.550Z,4.00
2019-03-22T01:03:46.117Z,4.03
2019-03-22T01:06:12.682Z,4.75
2019-03-22T01:08:39.433Z,4.33
2019-03-22T01:11:06.092Z,3.75
2019-03-22T01:13:32.752Z,3.80
2019-03-22T01:15:59.426Z,4.65
2019-03-22T01:18:26.268Z,4.08
2019-03-22T01:20:52.941Z,3.05
2019-03-22T01:23:19.596Z,3.55
2019-03-22T01:25:46.154Z,4.35
2019-03-22T01:28:12.816Z,4.00
2019-03-22T01:30:39.486Z,5.10
2019-03-22T01:33:06.351Z,3.65
2019-03-22T01:35:33.106Z,4.33
2019-03-22T01:37:59.774Z,3.12
2019-03-22T01:40:26.535Z,3.55
2019-03-22T01:42:53.307Z,4.05
2019-03-22T01:45:20.053Z,3.87
2019-03-22T01:47:46.810Z,3.87
2019-03-22T01:50:13.375Z,3.77
2019-03-22T01:52:40.045Z,4.15
2019-03-22T01:55:06.902Z,3.85
2019-03-22T01:57:33.574Z,3.50
2019-03-22T02:00:00.375Z,4.30
2019-03-22T02:02:27.386Z,4.83
2019-03-22T02:04:54.166Z,3.15
2019-03-22T02:07:20.924Z,3.83
2019-03-22T02:09:47.783Z,3.40
2019-03-22T02:12:14.446Z,3.72
2019-03-22T02:14:41.101Z,3.52
2019-03-22T02:19:40.462Z,4.25
2019-03-22T02:22:07.024Z,5.72
2019-03-22T02:24:33.881Z,3.98
2019-03-22T02:27:00.743Z,4.10
2019-03-22T02:29:27.514Z,3.60
2019-03-22T02:31:54.162Z,4.05
2019-03-22T02:34:20.835Z,4.30
2019-03-22T02:36:47.593Z,3.42
2019-03-22T02:39:14.424Z,3.25
2019-03-22T02:41:41.218Z,3.30
2019-03-22T02:44:07.983Z,3.33
2019-03-22T02:46:34.750Z,4.10
2019-03-22T02:49:01.516Z,4.12
2019-03-22T02:51:28.369Z,3.50
2019-03-22T02:53:55.234Z,3.37
2019-03-22T02:56:21.898Z,3.75
2019-03-22T02:58:48.773Z,3.60
2019-03-22T03:01:15.326Z,4.37
2019-03-22T03:03:42.091Z,4.60
2019-03-22T03:06:08.843Z,4.15
2019-03-22T03:08:35.720Z,3.37
2019-03-22T03:11:02.471Z,3.67
2019-03-22T03:13:29.344Z,3.30
2019-03-22T03:15:56.612Z,2.90
2019-03-22T03:18:23.380Z,3.70
2019-03-22T03:20:50.040Z,3.55
2019-03-22T03:23:16.903Z,3.52
2019-03-22T03:25:43.461Z,3.20
2019-03-22T03:28:10.110Z,4.03
2019-03-22T03:30:36.874Z,4.62
2019-03-22T03:33:03.641Z,3.47
2019-03-22T03:35:30.396Z,3.12
2019-03-22T03:37:57.175Z,3.15
2019-03-22T03:40:23.821Z,3.67
2019-03-22T03:42:50.379Z,3.25
2019-03-22T03:45:17.176Z,3.77
2019-03-22T03:47:43.923Z,3.62
2019-03-22T03:50:10.575Z,3.92
2019-03-22T03:52:39.488Z,3.67
2019-03-22T03:55:05.734Z,3.90
2019-03-22T03:57:32.494Z,4.15
2019-03-22T03:59:59.151Z,5.25
2019-03-22T04:02:25.810Z,4.35
2019-03-22T04:04:52.570Z,4.65
2019-03-22T04:07:19.229Z,3.52
2019-03-22T04:09:45.905Z,4.40
2019-03-22T04:12:12.772Z,4.58
2019-03-22T04:14:39.632Z,4.55
2019-03-22T04:17:06.484Z,3.87
2019-03-22T04:19:33.263Z,4.42
2019-03-22T04:22:00.163Z,3.42
2019-03-22T04:24:26.880Z,4.70
2019-03-22T04:26:53.449Z,3.40
2019-03-22T04:29:20.207Z,3.22
2019-03-22T04:31:46.747Z,3.83
2019-03-22T04:34:13.296Z,3.65
2019-03-22T04:36:39.954Z,3.72
2019-03-22T04:39:06.615Z,3.80
2019-03-22T04:41:33.292Z,4.00
2019-03-22T04:44:00.163Z,3.27
2019-03-22T04:46:26.725Z,4.22
2019-03-22T04:48:53.389Z,3.50
2019-03-22T04:51:20.241Z,5.62
2019-03-22T04:53:46.914Z,6.33
2019-03-22T04:56:13.563Z,3.67
2019-03-22T04:58:40.337Z,4.15
2019-03-22T05:01:07.193Z,4.78
2019-03-22T05:03:33.851Z,4.78
2019-03-22T05:06:00.726Z,3.67
2019-03-22T05:08:27.480Z,4.17
2019-03-22T05:10:54.248Z,4.62
2019-03-22T05:13:21.014Z,4.42
2019-03-22T05:15:47.774Z,4.47
2019-03-22T05:18:14.535Z,5.03
2019-03-22T05:20:41.193Z,6.05
2019-03-22T05:23:07.860Z,4.20
2019-03-22T05:25:34.521Z,4.55
2019-03-22T05:28:02.065Z,4.05
2019-03-22T05:30:28.650Z,4.20
2019-03-22T05:32:55.205Z,4.37
2019-03-22T05:35:21.977Z,3.65
2019-03-22T05:37:48.537Z,3.37
2019-03-22T05:40:15.189Z,4.53
2019-03-22T05:42:41.851Z,3.62
2019-03-22T05:45:08.622Z,4.00
2019-03-22T05:47:35.474Z,4.25
2019-03-22T05:50:02.233Z,4.70
2019-03-22T05:52:28.999Z,4.85
2019-03-22T05:54:55.675Z,3.87
2019-03-22T05:57:22.418Z,3.95
2019-03-22T05:59:48.888Z,4.40
2019-03-22T06:02:15.555Z,4.12
2019-03-22T06:04:42.302Z,3.98
2019-03-22T06:07:09.072Z,3.95
2019-03-22T06:09:35.831Z,6.03
2019-03-22T06:12:02.494Z,4.97
2019-03-22T06:14:29.146Z,4.10
2019-03-22T06:16:55.917Z,4.78
2019-03-22T06:19:22.589Z,5.83
2019-03-22T06:21:49.231Z,6.10
2019-03-22T06:24:15.993Z,5.12
2019-03-22T06:26:42.654Z,4.50
2019-03-22T06:29:09.311Z,5.17
2019-03-22T06:31:35.883Z,4.15
2019-03-22T06:34:02.629Z,5.12
2019-03-22T06:36:29.390Z,5.17
2019-03-22T06:38:56.055Z,5.37
2019-03-22T06:41:22.829Z,5.72
2019-03-22T06:43:49.481Z,4.87
2019-03-22T06:46:16.140Z,4.55
2019-03-22T06:48:42.910Z,5.78
2019-03-22T06:51:09.668Z,5.00
2019-03-22T06:53:36.422Z,5.33
2019-03-22T06:56:03.096Z,5.00
2019-03-22T06:58:29.754Z,5.08
2019-03-22T07:00:56.412Z,5.03
2019-03-22T07:03:23.175Z,3.92
2019-03-22T07:05:49.831Z,4.95
2019-03-22T07:08:16.485Z,6.12
2019-03-22T07:10:43.147Z,5.62
2019-03-22T07:13:09.829Z,5.60
2019-03-22T07:15:36.644Z,5.92
2019-03-22T07:18:03.439Z,6.30
2019-03-22T07:20:30.210Z,7.28
2019-03-22T07:22:56.777Z,6.73
2019-03-22T07:25:23.373Z,7.33
2019-03-22T07:27:50.375Z,9.33
2019-03-22T07:30:19.050Z,6.90
2019-03-22T07:32:45.873Z,5.80
2019-03-22T07:35:12.524Z,5.47
2019-03-22T07:37:39.386Z,5.33
2019-03-22T07:40:06.252Z,5.60
2019-03-22T07:42:32.910Z,5.40
2019-03-22T07:44:59.612Z,4.60
2019-03-22T07:47:26.109Z,6.00
2019-03-22T07:49:52.789Z,5.70
2019-03-22T07:52:19.330Z,4.90
2019-03-22T07:54:45.892Z,5.40
2019-03-22T07:57:12.529Z,4.63
2019-03-22T07:59:39.230Z,4.93
2019-03-22T08:02:05.990Z,5.37
2019-03-22T08:04:32.550Z,4.60
2019-03-22T08:07:01.245Z,5.20
2019-03-22T08:09:27.455Z,5.13
2019-03-22T08:11:54.161Z,5.80
2019-03-22T08:14:20.919Z,5.53
2019-03-22T08:16:47.699Z,6.67
2019-03-22T08:19:14.332Z,5.40
2019-03-22T08:21:40.911Z,4.90
2019-03-22T08:24:07.995Z,6.37
2019-03-22T08:26:35.049Z,7.17
2019-03-22T08:29:01.737Z,7.50
2019-03-22T08:31:28.473Z,8.10
2019-03-22T08:33:55.130Z,6.33
2019-03-22T08:36:21.694Z,6.63
2019-03-22T08:38:48.449Z,6.23
2019-03-22T08:41:15.304Z,5.90
2019-03-22T08:43:41.970Z,5.00
2019-03-22T08:46:08.637Z,4.27
2019-03-22T08:48:35.186Z,3.90
2019-03-22T08:51:02.172Z,4.03
2019-03-22T08:53:28.730Z,3.90
2019-03-22T08:55:55.424Z,3.90
2019-03-22T08:58:22.137Z,4.13
2019-03-22T09:00:57.504Z,5.30
2019-03-22T09:03:17.297Z,4.60
2019-03-22T09:05:43.969Z,4.30
2019-03-22T09:08:10.518Z,5.23
2019-03-22T09:10:37.298Z,4.90
2019-03-22T09:13:04.092Z,5.60
2019-03-22T09:15:40.666Z,4.67
2019-03-22T09:17:59.115Z,4.57
2019-03-22T09:20:25.877Z,5.57
2019-03-22T09:22:52.635Z,4.80
2019-03-22T09:25:19.325Z,5.13
2019-03-22T09:27:46.013Z,4.70
2019-03-22T09:30:12.621Z,5.13
2019-03-22T09:32:39.364Z,5.73
2019-03-22T09:35:06.135Z,4.87
2019-03-22T09:37:32.938Z,4.37
2019-03-22T09:39:59.582Z,2.53
2019-03-22T09:42:26.298Z,2.70
2019-03-22T09:44:53.011Z,2.73
2019-03-22T09:47:19.855Z,2.43
2019-03-22T09:49:46.515Z,3.03
2019-03-22T09:52:13.388Z,3.20
2019-03-22T09:54:40.077Z,3.40
2019-03-22T09:57:06.718Z,3.10
2019-03-22T09:59:33.387Z,3.83
2019-03-22T10:02:00.117Z,3.83
2019-03-22T10:04:26.780Z,3.73
2019-03-22T10:06:53.541Z,4.40
2019-03-22T10:09:20.201Z,4.95
2019-03-22T10:11:46.963Z,4.55
2019-03-22T10:14:13.632Z,4.35
2019-03-22T10:16:40.293Z,4.65
2019-03-22T10:19:07.044Z,4.40
2019-03-22T10:21:33.747Z,3.87
2019-03-22T10:24:00.482Z,4.10
2019-03-22T10:26:27.182Z,4.35
2019-03-22T10:28:53.781Z,4.83
2019-03-22T10:31:20.473Z,4.40
2019-03-22T10:33:47.134Z,4.05
2019-03-22T10:36:13.892Z,4.45
2019-03-22T10:38:40.428Z,4.15
2019-03-22T10:41:07.121Z,4.00
2019-03-22T10:43:34.869Z,4.25
2019-03-22T10:46:01.429Z,3.92
2019-03-22T10:48:27.990Z,3.75
2019-03-22T10:50:54.591Z,4.35
2019-03-22T10:53:21.323Z,4.00
2019-03-22T10:55:47.986Z,4.08
2019-03-22T10:58:21.001Z,4.20
2019-03-22T11:00:43.234Z,3.98
2019-03-22T11:03:09.894Z,4.53
2019-03-22T11:05:36.554Z,3.70
2019-03-22T11:08:03.322Z,4.37
2019-03-22T11:10:29.874Z,3.75
2019-03-22T11:12:56.533Z,4.03
2019-03-22T11:15:24.029Z,4.20
2019-03-22T11:17:50.863Z,3.77
2019-03-22T11:20:17.452Z,4.30
2019-03-22T11:22:44.193Z,4.17
2019-03-22T11:25:10.755Z,3.37
2019-03-22T11:27:37.412Z,4.00
2019-03-22T11:30:03.971Z,3.77
2019-03-22T11:32:30.633Z,3.35
2019-03-22T11:34:57.295Z,3.90
2019-03-22T11:37:23.952Z,4.25
2019-03-22T11:39:50.511Z,4.05
2019-03-22T11:42:17.171Z,4.47
2019-03-22T11:44:43.731Z,3.52
2019-03-22T11:47:10.352Z,4.50
2019-03-22T11:49:36.871Z,4.20
2019-03-22T11:52:03.512Z,4.10
2019-03-22T11:54:30.064Z,5.22
2019-03-22T11:56:56.726Z,4.60
2019-03-22T11:59:23.504Z,4.50
2019-03-22T12:01:50.245Z,4.65
2019-03-22T12:04:17.135Z,5.00
2019-03-22T12:06:43.885Z,4.78
2019-03-22T12:09:10.543Z,4.92
2019-03-22T12:11:37.203Z,5.10
2019-03-22T12:14:03.963Z,5.37
2019-03-22T12:16:30.525Z,4.15
2019-03-22T12:18:57.183Z,4.50
2019-03-22T12:21:23.743Z,3.85
2019-03-22T12:23:50.403Z,4.22
2019-03-22T12:26:16.963Z,4.58
2019-03-22T12:28:43.723Z,4.08
2019-03-22T12:31:10.284Z,4.47
2019-03-22T12:33:37.079Z,4.95
2019-03-22T12:36:03.706Z,4.40
2019-03-22T12:38:30.363Z,4.78
2019-03-22T12:40:57.023Z,4.47
2019-03-22T12:43:23.686Z,4.00
2019-03-22T12:45:50.346Z,4.40
2019-03-22T12:48:17.008Z,3.90
2019-03-22T12:50:43.761Z,3.50
2019-03-22T12:53:10.541Z,4.37
2019-03-22T12:55:37.181Z,4.05
2019-03-22T12:58:03.761Z,4.65
2019-03-22T13:00:30.408Z,4.37
2019-03-22T13:02:57.166Z,4.42
2019-03-22T13:05:23.831Z,3.90
2019-03-22T13:07:50.580Z,4.92
2019-03-22T13:10:17.241Z,4.40
2019-03-22T13:12:43.721Z,5.22
2019-03-22T13:15:10.461Z,5.45
2019-03-22T13:17:37.141Z,4.87
2019-03-22T13:20:03.901Z,5.22
2019-03-22T13:22:30.561Z,5.85
2019-03-22T13:24:57.122Z,5.87
2019-03-22T13:27:23.781Z,4.85
2019-03-22T13:29:50.544Z,5.42
2019-03-22T13:32:17.200Z,4.60
2019-03-22T13:34:43.860Z,4.72
2019-03-22T13:37:11.623Z,4.50
2019-03-22T13:39:38.409Z,5.03
2019-03-22T13:42:05.167Z,4.30
2019-03-22T13:47:05.638Z,3.87
2019-03-22T13:49:32.312Z,3.80
2019-03-22T13:51:58.853Z,5.33
2019-03-22T13:54:25.416Z,4.17
2019-03-22T13:56:53.037Z,4.30
2019-03-22T13:59:19.673Z,3.65
2019-03-22T14:01:46.439Z,4.17
2019-03-22T14:04:13.192Z,3.08
2019-03-22T14:06:40.252Z,3.70
2019-03-22T14:09:06.911Z,3.27
2019-03-22T14:11:33.571Z,3.55
2019-03-22T14:14:00.226Z,3.75
2019-03-22T14:16:26.897Z,3.12
2019-03-22T14:18:53.567Z,3.37
2019-03-22T14:21:20.320Z,2.87
2019-03-22T14:23:46.873Z,3.10
2019-03-22T14:26:13.800Z,3.33
2019-03-22T14:28:40.612Z,2.67
2019-03-22T14:31:07.157Z,3.20
2019-03-22T14:33:33.827Z,2.62
2019-03-22T14:36:00.390Z,3.25
2019-03-22T14:38:27.043Z,3.30
2019-03-22T14:40:53.806Z,3.17
2019-03-22T14:43:20.469Z,2.75
2019-03-22T14:45:47.141Z,2.50
2019-03-22T14:48:13.902Z,2.92
2019-03-22T14:50:40.548Z,2.87
2019-03-22T14:53:07.202Z,2.50
2019-03-22T14:55:33.877Z,2.70
2019-03-22T15:03:32.610Z,2.92
2019-03-22T15:05:59.175Z,2.55
2019-03-22T15:08:25.733Z,3.08
2019-03-22T15:10:52.321Z,3.95
2019-03-22T15:13:18.867Z,3.80
2019-03-22T15:15:45.504Z,4.03
2019-03-22T15:18:12.074Z,2.95
2019-03-22T15:20:38.613Z,2.67
2019-03-22T15:23:05.175Z,2.65
2019-03-22T15:25:33.584Z,2.92
2019-03-22T15:28:00.531Z,2.52
2019-03-22T15:30:27.423Z,3.37
2019-03-22T15:32:54.071Z,3.17
2019-03-22T15:35:20.782Z,2.80
2019-03-22T15:37:47.694Z,2.98
2019-03-22T15:40:14.265Z,2.65
2019-03-22T15:42:40.921Z,2.10
2019-03-22T15:45:07.552Z,2.50
2019-03-22T15:47:34.455Z,2.80
2019-03-22T15:50:01.212Z,3.15
2019-03-22T15:52:27.876Z,2.42
2019-03-22T15:54:54.523Z,3.27
2019-03-22T15:57:21.081Z,3.02
2019-03-22T15:59:47.643Z,3.12
2019-03-22T16:02:14.307Z,2.60
2019-03-22T16:04:40.964Z,2.90
2019-03-22T16:07:07.634Z,3.10
2019-03-22T16:09:34.391Z,2.85
2019-03-22T16:12:01.249Z,2.80
2019-03-22T16:14:28.134Z,2.87
2019-03-22T16:16:55.082Z,2.80
2019-03-22T16:19:21.740Z,3.10
2019-03-22T16:21:48.499Z,2.67
2019-03-22T16:24:15.597Z,2.65
2019-03-22T16:26:42.449Z,2.50
2019-03-22T16:29:09.115Z,2.52
2019-03-22T16:31:35.867Z,2.65
2019-03-22T16:34:02.636Z,2.58
2019-03-22T16:36:29.396Z,2.60
2019-03-22T16:38:56.257Z,2.42
2019-03-22T16:41:22.913Z,2.25
2019-03-22T16:43:49.781Z,2.35
2019-03-22T16:46:16.449Z,2.85
2019-03-22T16:48:43.305Z,2.35
2019-03-22T16:51:09.963Z,4.37
2019-03-22T16:53:36.727Z,2.50
2019-03-22T16:56:03.519Z,2.95
2019-03-22T16:58:30.456Z,2.92
2019-03-22T17:00:57.430Z,3.62
2019-03-22T17:03:23.995Z,2.55
2019-03-22T17:05:50.636Z,2.77
2019-03-22T17:08:17.511Z,2.27
2019-03-22T17:10:44.161Z,2.30
2019-03-22T17:13:10.927Z,2.55
2019-03-22T17:15:37.700Z,2.92
2019-03-22T17:18:04.344Z,3.70
2019-03-22T17:20:31.112Z,3.52
2019-03-22T17:22:57.936Z,2.92
2019-03-22T17:25:24.737Z,3.50
2019-03-22T17:27:51.718Z,3.65
2019-03-22T17:30:18.365Z,3.72
2019-03-22T17:32:44.939Z,4.00
2019-03-22T17:35:11.807Z,3.45
2019-03-22T17:37:38.467Z,3.60
2019-03-22T17:40:05.224Z,4.60
2019-03-22T17:42:31.878Z,4.55
2019-03-22T17:44:58.641Z,5.00
2019-03-22T17:47:25.291Z,5.35
2019-03-22T17:49:51.958Z,4.30
2019-03-22T17:52:18.824Z,4.37
2019-03-22T17:54:45.692Z,3.40
2019-03-22T17:57:18.668Z,4.15
2019-03-22T17:59:41.057Z,3.80
2019-03-22T18:02:07.941Z,3.65
2019-03-22T18:04:34.786Z,3.60
2019-03-22T18:07:01.753Z,3.65
2019-03-22T18:09:28.418Z,3.05
2019-03-22T18:11:55.269Z,3.45
2019-03-22T18:14:21.929Z,4.53
2019-03-22T18:16:48.596Z,4.90
2019-03-22T18:19:15.352Z,6.85
2019-03-22T18:21:42.026Z,4.60
2019-03-22T18:24:08.570Z,4.97
2019-03-22T18:26:35.453Z,4.87
2019-03-22T18:29:02.003Z,4.62
2019-03-22T18:31:28.879Z,3.45
2019-03-22T18:33:55.637Z,4.17
2019-03-22T18:36:22.282Z,5.12
2019-03-22T18:38:48.949Z,4.20
2019-03-22T18:41:15.619Z,4.90
2019-03-22T18:43:42.595Z,4.92
2019-03-22T18:46:09.428Z,5.30
2019-03-22T18:48:35.997Z,4.33
2019-03-22T18:51:02.775Z,5.08
2019-03-22T18:53:29.624Z,4.15
2019-03-22T18:55:56.301Z,4.60
2019-03-22T18:58:23.803Z,4.17
2019-03-22T19:00:50.729Z,4.72
2019-03-22T19:03:17.396Z,4.40
2019-03-22T19:05:44.076Z,3.85
2019-03-22T19:08:10.910Z,3.92
2019-03-22T19:10:37.472Z,4.33
2019-03-22T19:13:04.138Z,3.30
2019-03-22T19:15:30.696Z,3.30
2019-03-22T19:17:57.356Z,3.80
2019-03-22T19:20:24.127Z,3.42
2019-03-22T19:22:50.987Z,3.50
2019-03-22T19:25:17.746Z,3.60
2019-03-22T19:27:45.380Z,3.98
2019-03-22T19:30:12.202Z,4.65
2019-03-22T19:32:39.065Z,3.80
2019-03-22T19:35:05.809Z,4.25
2019-03-22T19:37:32.371Z,3.98
2019-03-22T19:39:59.042Z,4.37
2019-03-22T19:42:25.810Z,4.80
2019-03-22T19:44:52.663Z,4.50
2019-03-22T19:47:19.189Z,4.87
2019-03-22T19:49:45.878Z,5.65
2019-03-22T19:52:12.544Z,5.65
2019-03-22T19:54:39.520Z,5.65
2019-03-22T19:57:06.480Z,6.00
2019-03-22T19:59:33.385Z,5.37
2019-03-22T20:02:00.207Z,4.85
2019-03-22T20:04:26.857Z,5.65
2019-03-22T20:06:53.518Z,6.78
2019-03-22T20:09:20.183Z,6.20
2019-03-22T20:11:46.844Z,6.85
2019-03-22T20:14:13.620Z,5.90
2019-03-22T20:16:40.363Z,6.40
2019-03-22T20:19:07.051Z,5.97
2019-03-22T20:21:34.204Z,7.22
2019-03-22T20:24:00.973Z,6.03
2019-03-22T20:26:27.776Z,6.03
2019-03-22T20:28:54.698Z,6.90
2019-03-22T20:31:21.556Z,6.87
2019-03-22T20:33:48.435Z,6.85
2019-03-22T20:36:15.393Z,8.15
2019-03-22T20:38:42.047Z,7.15
2019-03-22T20:41:08.609Z,8.78
2019-03-22T20:43:35.388Z,8.48
2019-03-22T20:46:02.136Z,7.85
2019-03-22T20:48:28.897Z,8.15
2019-03-22T20:50:55.659Z,7.87
2019-03-22T20:53:22.336Z,8.90
2019-03-22T20:55:49.076Z,7.75
2019-03-22T20:58:15.755Z,9.10
2019-03-22T21:00:42.397Z,9.05
2019-03-22T21:03:08.957Z,8.65
2019-03-22T21:05:35.617Z,8.90
2019-03-22T21:08:02.296Z,8.38
2019-03-22T21:10:29.036Z,9.85
2019-03-22T21:12:55.854Z,9.50
2019-03-22T21:15:24.696Z,9.50
2019-03-22T21:17:51.072Z,9.60
2019-03-22T21:20:17.727Z,9.58
2019-03-22T21:22:44.300Z,8.75
2019-03-22T21:25:11.321Z,7.83
2019-03-22T21:27:38.290Z,7.90
2019-03-22T21:30:05.203Z,7.47
2019-03-22T21:32:32.054Z,8.25
2019-03-22T21:34:58.601Z,7.12
2019-03-22T21:37:25.395Z,6.65
2019-03-22T21:39:52.260Z,6.60
2019-03-22T21:42:19.113Z,6.40
2019-03-22T21:44:45.981Z,6.37
2019-03-22T21:47:13.000Z,6.20
2019-03-22T21:49:39.693Z,5.90
